sensor_id;sensor_type;location;lat;lon;timestamp;temperature;humidity
28244;DHT22;15510;52.512;13.300;2022-07-06T00:01:31;18.50;99.90
28244;DHT22;15510;52.512;13.300;2022-07-06T00:03:57;18.40;99.90
28244;DHT22;15510;52.512;13.300;2022-07-06T00:06:23;18.30;99.90
28244;DHT22;15510;52.512;13.300;2022-07-06T00:08:49;18.30;99.90
28244;DHT22;15510;52.512;13.300;2022-07-06T00:11:15;18.30;99.90
28244;DHT22;15510;52.512;13.300;2022-07-06T00:13:41;18.30;99.90
28244;DHT22;15510;52.512;13.300;2022-07-06T00:16:07;18.30;99.90
28244;DHT22;15510;52.512;13.300;2022-07-06T00:18:33;18.30;99.90
28244;DHT22;15510;52.512;13.300;2022-07-06T00:20:58;18.20;99.90
28244;DHT22;15510;52.512;13.300;2022-07-06T00:23:24;18.10;99.90
28244;DHT22;15510;52.512;13.300;2022-07-06T00:25:50;18.10;99.90
28244;DHT22;15510;52.512;13.300;2022-07-06T00:28:15;18.10;99.90
28244;DHT22;15510;52.512;13.300;2022-07-06T00:30:41;18.10;99.90
28244;DHT22;15510;52.512;13.300;2022-07-06T00:33:07;18.10;99.90
28244;DHT22;15510;52.512;13.300;2022-07-06T00:35:33;18.10;99.90
28244;DHT22;15510;52.512;13.300;2022-07-06T00:37:59;18.10;99.90
28244;DHT22;15510;52.512;13.300;2022-07-06T00:40:24;18.20;99.90
28244;DHT22;15510;52.512;13.300;2022-07-06T00:42:50;18.10;99.90
28244;DHT22;15510;52.512;13.300;2022-07-06T00:45:17;18.10;99.90
28244;DHT22;15510;52.512;13.300;2022-07-06T00:47:43;18.10;99.90
28244;DHT22;15510;52.512;13.300;2022-07-06T00:50:15;18.10;99.90
28244;DHT22;15510;52.512;13.300;2022-07-06T00:52:43;18.00;99.90
28244;DHT22;15510;52.512;13.300;2022-07-06T00:55:10;18.00;99.90
28244;DHT22;15510;52.512;13.300;2022-07-06T00:57:36;17.90;99.90
28244;DHT22;15510;52.512;13.300;2022-07-06T01:00:10;17.90;99.90
28244;DHT22;15510;52.512;13.300;2022-07-06T01:02:36;17.90;99.90
28244;DHT22;15510;52.512;13.300;2022-07-06T01:05:04;17.90;99.90
28244;DHT22;15510;52.512;13.300;2022-07-06T01:07:30;17.90;99.90
28244;DHT22;15510;52.512;13.300;2022-07-06T01:09:56;17.90;99.90
28244;DHT22;15510;52.512;13.300;2022-07-06T01:12:23;17.90;99.90
28244;DHT22;15510;52.512;13.300;2022-07-06T01:14:49;17.90;99.90
28244;DHT22;15510;52.512;13.300;2022-07-06T01:17:16;17.90;99.90
28244;DHT22;15510;52.512;13.300;2022-07-06T01:19:43;17.90;99.90
28244;DHT22;15510;52.512;13.300;2022-07-06T01:22:10;18.00;99.90
28244;DHT22;15510;52.512;13.300;2022-07-06T01:24:36;17.90;99.90
28244;DHT22;15510;52.512;13.300;2022-07-06T01:27:04;17.90;99.90
28244;DHT22;15510;52.512;13.300;2022-07-06T01:29:30;17.90;99.90
28244;DHT22;15510;52.512;13.300;2022-07-06T01:31:57;17.90;99.90
28244;DHT22;15510;52.512;13.300;2022-07-06T01:34:25;17.90;99.90
28244;DHT22;15510;52.512;13.300;2022-07-06T01:36:50;17.90;99.90
28244;DHT22;15510;52.512;13.300;2022-07-06T01:39:18;17.90;99.90
28244;DHT22;15510;52.512;13.300;2022-07-06T01:41:44;17.90;99.90
28244;DHT22;15510;52.512;13.300;2022-07-06T01:44:10;17.90;99.90
28244;DHT22;15510;52.512;13.300;2022-07-06T01:46:37;17.90;99.90
28244;DHT22;15510;52.512;13.300;2022-07-06T01:49:04;17.90;99.90
28244;DHT22;15510;52.512;13.300;2022-07-06T01:51:31;17.90;99.90
28244;DHT22;15510;52.512;13.300;2022-07-06T01:53:58;17.90;99.90
28244;DHT22;15510;52.512;13.300;2022-07-06T01:56:25;18.00;99.90
28244;DHT22;15510;52.512;13.300;2022-07-06T01:58:56;17.90;99.90
28244;DHT22;15510;52.512;13.300;2022-07-06T02:01:22;17.90;99.90
28244;DHT22;15510;52.512;13.300;2022-07-06T02:03:49;18.00;99.90
28244;DHT22;15510;52.512;13.300;2022-07-06T02:06:15;18.00;99.90
28244;DHT22;15510;52.512;13.300;2022-07-06T02:08:42;18.10;99.90
28244;DHT22;15510;52.512;13.300;2022-07-06T02:11:09;18.10;99.90
28244;DHT22;15510;52.512;13.300;2022-07-06T02:13:38;18.20;99.90
28244;DHT22;15510;52.512;13.300;2022-07-06T02:16:06;18.10;99.90
28244;DHT22;15510;52.512;13.300;2022-07-06T02:18:32;18.00;99.90
28244;DHT22;15510;52.512;13.300;2022-07-06T02:20:59;17.80;99.90
28244;DHT22;15510;52.512;13.300;2022-07-06T02:23:26;17.60;99.90
28244;DHT22;15510;52.512;13.300;2022-07-06T02:25:52;17.40;99.90
28244;DHT22;15510;52.512;13.300;2022-07-06T02:28:18;17.10;99.90
28244;DHT22;15510;52.512;13.300;2022-07-06T02:30:44;16.90;99.90
28244;DHT22;15510;52.512;13.300;2022-07-06T02:33:11;16.60;99.90
28244;DHT22;15510;52.512;13.300;2022-07-06T02:35:37;16.40;99.90
28244;DHT22;15510;52.512;13.300;2022-07-06T02:38:08;16.20;99.90
28244;DHT22;15510;52.512;13.300;2022-07-06T02:40:34;16.10;99.90
28244;DHT22;15510;52.512;13.300;2022-07-06T02:43:00;15.90;99.90
28244;DHT22;15510;52.512;13.300;2022-07-06T02:45:25;15.80;99.90
28244;DHT22;15510;52.512;13.300;2022-07-06T02:47:51;15.70;99.90
28244;DHT22;15510;52.512;13.300;2022-07-06T02:50:18;15.70;99.90
28244;DHT22;15510;52.512;13.300;2022-07-06T02:52:44;15.70;99.90
28244;DHT22;15510;52.512;13.300;2022-07-06T02:55:10;15.60;99.90
28244;DHT22;15510;52.512;13.300;2022-07-06T02:57:36;15.60;99.90
28244;DHT22;15510;52.512;13.300;2022-07-06T03:00:03;15.70;99.90
28244;DHT22;15510;52.512;13.300;2022-07-06T03:02:31;15.80;99.90
28244;DHT22;15510;52.512;13.300;2022-07-06T03:04:57;15.80;99.90
28244;DHT22;15510;52.512;13.300;2022-07-06T03:07:23;15.90;99.90
28244;DHT22;15510;52.512;13.300;2022-07-06T03:09:49;15.90;99.90
28244;DHT22;15510;52.512;13.300;2022-07-06T03:12:16;15.90;99.90
28244;DHT22;15510;52.512;13.300;2022-07-06T03:14:42;15.90;99.90
28244;DHT22;15510;52.512;13.300;2022-07-06T03:17:09;15.90;99.90
28244;DHT22;15510;52.512;13.300;2022-07-06T03:19:35;15.90;99.90
28244;DHT22;15510;52.512;13.300;2022-07-06T03:22:02;15.90;99.90
28244;DHT22;15510;52.512;13.300;2022-07-06T03:24:28;16.00;99.90
28244;DHT22;15510;52.512;13.300;2022-07-06T03:26:54;16.00;99.90
28244;DHT22;15510;52.512;13.300;2022-07-06T03:29:20;16.00;99.90
28244;DHT22;15510;52.512;13.300;2022-07-06T03:31:47;15.90;99.90
28244;DHT22;15510;52.512;13.300;2022-07-06T03:34:13;15.90;99.90
28244;DHT22;15510;52.512;13.300;2022-07-06T03:36:39;16.00;99.90
28244;DHT22;15510;52.512;13.300;2022-07-06T03:39:06;16.00;99.90
28244;DHT22;15510;52.512;13.300;2022-07-06T03:41:34;16.00;99.90
28244;DHT22;15510;52.512;13.300;2022-07-06T03:44:00;16.00;99.90
28244;DHT22;15510;52.512;13.300;2022-07-06T03:46:26;16.10;99.90
28244;DHT22;15510;52.512;13.300;2022-07-06T03:48:52;16.00;99.90
28244;DHT22;15510;52.512;13.300;2022-07-06T03:51:18;16.00;99.90
28244;DHT22;15510;52.512;13.300;2022-07-06T03:53:44;16.00;99.90
28244;DHT22;15510;52.512;13.300;2022-07-06T03:56:11;16.00;99.90
28244;DHT22;15510;52.512;13.300;2022-07-06T03:59:00;16.00;99.90
28244;DHT22;15510;52.512;13.300;2022-07-06T04:01:28;16.00;99.90
28244;DHT22;15510;52.512;13.300;2022-07-06T04:03:56;16.10;99.90
28244;DHT22;15510;52.512;13.300;2022-07-06T04:06:23;16.20;99.90
28244;DHT22;15510;52.512;13.300;2022-07-06T04:08:49;16.30;99.90
28244;DHT22;15510;52.512;13.300;2022-07-06T04:11:15;16.50;99.90
28244;DHT22;15510;52.512;13.300;2022-07-06T04:13:41;16.60;99.90
28244;DHT22;15510;52.512;13.300;2022-07-06T04:16:07;16.70;99.90
28244;DHT22;15510;52.512;13.300;2022-07-06T04:18:33;16.90;99.90
28244;DHT22;15510;52.512;13.300;2022-07-06T04:20:59;17.00;99.90
28244;DHT22;15510;52.512;13.300;2022-07-06T04:23:27;17.00;99.90
28244;DHT22;15510;52.512;13.300;2022-07-06T04:25:54;17.00;99.90
28244;DHT22;15510;52.512;13.300;2022-07-06T04:28:20;17.10;99.90
28244;DHT22;15510;52.512;13.300;2022-07-06T04:30:46;17.00;99.90
28244;DHT22;15510;52.512;13.300;2022-07-06T04:33:16;17.10;99.90
28244;DHT22;15510;52.512;13.300;2022-07-06T04:35:44;17.10;99.90
28244;DHT22;15510;52.512;13.300;2022-07-06T04:38:10;17.10;99.90
28244;DHT22;15510;52.512;13.300;2022-07-06T04:40:36;17.20;99.90
28244;DHT22;15510;52.512;13.300;2022-07-06T04:43:06;17.30;99.90
28244;DHT22;15510;52.512;13.300;2022-07-06T04:45:33;17.30;99.90
28244;DHT22;15510;52.512;13.300;2022-07-06T04:48:00;17.30;99.90
28244;DHT22;15510;52.512;13.300;2022-07-06T04:50:26;17.20;99.90
28244;DHT22;15510;52.512;13.300;2022-07-06T04:52:54;17.20;99.90
28244;DHT22;15510;52.512;13.300;2022-07-06T04:55:20;17.20;99.90
28244;DHT22;15510;52.512;13.300;2022-07-06T04:57:47;17.10;99.90
28244;DHT22;15510;52.512;13.300;2022-07-06T05:00:14;17.10;99.90
28244;DHT22;15510;52.512;13.300;2022-07-06T05:02:41;17.20;99.90
28244;DHT22;15510;52.512;13.300;2022-07-06T05:05:07;17.30;99.90
28244;DHT22;15510;52.512;13.300;2022-07-06T05:07:35;17.20;99.90
28244;DHT22;15510;52.512;13.300;2022-07-06T05:10:07;17.20;99.90
28244;DHT22;15510;52.512;13.300;2022-07-06T05:12:33;17.10;99.90
28244;DHT22;15510;52.512;13.300;2022-07-06T05:14:59;17.20;99.90
28244;DHT22;15510;52.512;13.300;2022-07-06T05:17:25;17.20;99.90
28244;DHT22;15510;52.512;13.300;2022-07-06T05:19:51;17.30;99.90
28244;DHT22;15510;52.512;13.300;2022-07-06T05:22:17;17.30;99.90
28244;DHT22;15510;52.512;13.300;2022-07-06T05:24:43;17.20;99.90
28244;DHT22;15510;52.512;13.300;2022-07-06T05:27:09;17.30;99.90
28244;DHT22;15510;52.512;13.300;2022-07-06T05:29:35;17.30;99.90
28244;DHT22;15510;52.512;13.300;2022-07-06T05:32:00;17.40;99.90
28244;DHT22;15510;52.512;13.300;2022-07-06T05:34:26;17.60;99.90
28244;DHT22;15510;52.512;13.300;2022-07-06T05:36:52;17.70;99.90
28244;DHT22;15510;52.512;13.300;2022-07-06T05:39:18;17.80;99.90
28244;DHT22;15510;52.512;13.300;2022-07-06T05:41:47;17.90;99.90
28244;DHT22;15510;52.512;13.300;2022-07-06T05:44:14;18.10;99.90
28244;DHT22;15510;52.512;13.300;2022-07-06T05:46:39;18.10;99.90
28244;DHT22;15510;52.512;13.300;2022-07-06T05:49:08;18.10;99.90
28244;DHT22;15510;52.512;13.300;2022-07-06T05:51:53;18.10;99.90
28244;DHT22;15510;52.512;13.300;2022-07-06T05:54:19;18.00;99.90
28244;DHT22;15510;52.512;13.300;2022-07-06T05:56:47;17.90;99.90
28244;DHT22;15510;52.512;13.300;2022-07-06T05:59:12;17.80;99.90
28244;DHT22;15510;52.512;13.300;2022-07-06T06:01:38;17.70;99.90
28244;DHT22;15510;52.512;13.300;2022-07-06T06:04:11;17.70;99.90
28244;DHT22;15510;52.512;13.300;2022-07-06T06:06:38;17.70;99.90
28244;DHT22;15510;52.512;13.300;2022-07-06T06:09:04;17.80;99.90
28244;DHT22;15510;52.512;13.300;2022-07-06T06:11:29;17.90;99.90
28244;DHT22;15510;52.512;13.300;2022-07-06T06:13:55;18.00;99.90
28244;DHT22;15510;52.512;13.300;2022-07-06T06:16:21;18.00;99.90
28244;DHT22;15510;52.512;13.300;2022-07-06T06:18:47;18.10;99.90
28244;DHT22;15510;52.512;13.300;2022-07-06T06:21:13;18.10;99.90
28244;DHT22;15510;52.512;13.300;2022-07-06T06:23:38;18.10;99.90
28244;DHT22;15510;52.512;13.300;2022-07-06T06:26:04;18.10;99.90
28244;DHT22;15510;52.512;13.300;2022-07-06T06:28:30;18.10;99.90
28244;DHT22;15510;52.512;13.300;2022-07-06T06:30:55;18.20;99.90
28244;DHT22;15510;52.512;13.300;2022-07-06T06:33:21;18.20;99.90
28244;DHT22;15510;52.512;13.300;2022-07-06T06:35:52;18.20;99.90
28244;DHT22;15510;52.512;13.300;2022-07-06T06:38:20;18.30;99.90
28244;DHT22;15510;52.512;13.300;2022-07-06T06:40:46;18.30;99.90
28244;DHT22;15510;52.512;13.300;2022-07-06T06:43:12;18.50;99.90
28244;DHT22;15510;52.512;13.300;2022-07-06T06:45:50;18.50;99.90
28244;DHT22;15510;52.512;13.300;2022-07-06T06:48:15;18.40;99.90
28244;DHT22;15510;52.512;13.300;2022-07-06T06:50:43;18.50;99.90
28244;DHT22;15510;52.512;13.300;2022-07-06T06:53:09;18.80;99.90
28244;DHT22;15510;52.512;13.300;2022-07-06T06:55:34;19.20;99.90
28244;DHT22;15510;52.512;13.300;2022-07-06T06:58:00;19.30;99.90
28244;DHT22;15510;52.512;13.300;2022-07-06T07:00:26;19.40;99.90
28244;DHT22;15510;52.512;13.300;2022-07-06T07:02:52;19.50;99.90
28244;DHT22;15510;52.512;13.300;2022-07-06T07:05:17;19.50;99.90
28244;DHT22;15510;52.512;13.300;2022-07-06T07:07:43;19.60;99.90
28244;DHT22;15510;52.512;13.300;2022-07-06T07:10:09;19.60;99.90
28244;DHT22;15510;52.512;13.300;2022-07-06T07:12:34;19.80;99.90
28244;DHT22;15510;52.512;13.300;2022-07-06T07:15:01;20.00;99.90
28244;DHT22;15510;52.512;13.300;2022-07-06T07:17:27;20.30;99.90
28244;DHT22;15510;52.512;13.300;2022-07-06T07:19:52;20.40;99.90
28244;DHT22;15510;52.512;13.300;2022-07-06T07:22:18;20.30;99.90
28244;DHT22;15510;52.512;13.300;2022-07-06T07:24:44;20.20;99.90
28244;DHT22;15510;52.512;13.300;2022-07-06T07:27:09;20.10;99.90
28244;DHT22;15510;52.512;13.300;2022-07-06T07:29:35;20.00;99.90
28244;DHT22;15510;52.512;13.300;2022-07-06T07:32:01;20.00;99.90
28244;DHT22;15510;52.512;13.300;2022-07-06T07:34:26;19.90;99.90
28244;DHT22;15510;52.512;13.300;2022-07-06T07:36:52;20.00;99.90
28244;DHT22;15510;52.512;13.300;2022-07-06T07:39:17;20.10;99.90
28244;DHT22;15510;52.512;13.300;2022-07-06T07:41:43;20.30;99.90
28244;DHT22;15510;52.512;13.300;2022-07-06T07:44:09;20.50;99.90
28244;DHT22;15510;52.512;13.300;2022-07-06T07:46:35;20.70;99.90
28244;DHT22;15510;52.512;13.300;2022-07-06T07:49:00;20.70;99.90
28244;DHT22;15510;52.512;13.300;2022-07-06T07:51:28;20.70;99.90
28244;DHT22;15510;52.512;13.300;2022-07-06T07:53:53;20.70;99.90
28244;DHT22;15510;52.512;13.300;2022-07-06T07:56:19;20.70;99.90
28244;DHT22;15510;52.512;13.300;2022-07-06T07:58:44;20.50;99.90
28244;DHT22;15510;52.512;13.300;2022-07-06T08:01:13;20.50;99.90
28244;DHT22;15510;52.512;13.300;2022-07-06T08:03:39;20.70;99.90
28244;DHT22;15510;52.512;13.300;2022-07-06T08:06:05;20.60;99.90
28244;DHT22;15510;52.512;13.300;2022-07-06T08:08:31;20.50;99.90
28244;DHT22;15510;52.512;13.300;2022-07-06T08:10:57;20.50;99.90
28244;DHT22;15510;52.512;13.300;2022-07-06T08:13:22;20.40;99.90
28244;DHT22;15510;52.512;13.300;2022-07-06T08:15:48;20.30;99.90
28244;DHT22;15510;52.512;13.300;2022-07-06T08:18:13;20.40;99.90
28244;DHT22;15510;52.512;13.300;2022-07-06T08:20:39;20.50;99.70
28244;DHT22;15510;52.512;13.300;2022-07-06T08:23:05;20.70;99.70
28244;DHT22;15510;52.512;13.300;2022-07-06T08:25:31;20.90;99.20
28244;DHT22;15510;52.512;13.300;2022-07-06T08:27:57;21.00;97.10
28244;DHT22;15510;52.512;13.300;2022-07-06T08:30:23;21.10;97.00
28244;DHT22;15510;52.512;13.300;2022-07-06T08:32:48;21.20;97.50
28244;DHT22;15510;52.512;13.300;2022-07-06T08:35:14;21.30;96.80
28244;DHT22;15510;52.512;13.300;2022-07-06T08:37:40;21.40;96.50
28244;DHT22;15510;52.512;13.300;2022-07-06T08:40:08;21.50;96.30
28244;DHT22;15510;52.512;13.300;2022-07-06T08:42:35;21.60;94.80
28244;DHT22;15510;52.512;13.300;2022-07-06T08:45:04;21.60;94.10
28244;DHT22;15510;52.512;13.300;2022-07-06T08:47:30;21.60;94.70
28244;DHT22;15510;52.512;13.300;2022-07-06T08:49:56;21.70;94.40
28244;DHT22;15510;52.512;13.300;2022-07-06T08:52:23;21.50;94.30
28244;DHT22;15510;52.512;13.300;2022-07-06T08:54:49;21.30;94.20
28244;DHT22;15510;52.512;13.300;2022-07-06T08:57:15;21.30;94.50
28244;DHT22;15510;52.512;13.300;2022-07-06T08:59:41;21.40;95.10
28244;DHT22;15510;52.512;13.300;2022-07-06T09:02:09;21.30;94.30
28244;DHT22;15510;52.512;13.300;2022-07-06T09:04:36;21.30;94.40
28244;DHT22;15510;52.512;13.300;2022-07-06T09:07:03;21.40;93.90
28244;DHT22;15510;52.512;13.300;2022-07-06T09:09:30;21.40;93.20
28244;DHT22;15510;52.512;13.300;2022-07-06T09:11:56;21.40;92.80
28244;DHT22;15510;52.512;13.300;2022-07-06T09:14:22;21.40;91.90
28244;DHT22;15510;52.512;13.300;2022-07-06T09:16:52;21.40;90.70
28244;DHT22;15510;52.512;13.300;2022-07-06T09:19:26;21.50;87.90
28244;DHT22;15510;52.512;13.300;2022-07-06T09:21:51;21.70;88.20
28244;DHT22;15510;52.512;13.300;2022-07-06T09:24:18;21.80;86.80
28244;DHT22;15510;52.512;13.300;2022-07-06T09:26:45;21.90;85.50
28244;DHT22;15510;52.512;13.300;2022-07-06T09:29:12;22.10;84.30
28244;DHT22;15510;52.512;13.300;2022-07-06T09:31:39;22.10;84.40
28244;DHT22;15510;52.512;13.300;2022-07-06T09:34:06;22.20;85.60
28244;DHT22;15510;52.512;13.300;2022-07-06T09:36:47;22.10;86.30
28244;DHT22;15510;52.512;13.300;2022-07-06T09:39:28;21.80;83.20
28244;DHT22;15510;52.512;13.300;2022-07-06T09:41:56;21.80;83.50
28244;DHT22;15510;52.512;13.300;2022-07-06T09:44:32;21.70;85.30
28244;DHT22;15510;52.512;13.300;2022-07-06T09:47:03;21.80;85.60
28244;DHT22;15510;52.512;13.300;2022-07-06T09:49:29;21.80;86.10
28244;DHT22;15510;52.512;13.300;2022-07-06T09:51:58;21.90;86.60
28244;DHT22;15510;52.512;13.300;2022-07-06T09:54:24;21.90;87.80
28244;DHT22;15510;52.512;13.300;2022-07-06T09:56:50;22.00;87.90
28244;DHT22;15510;52.512;13.300;2022-07-06T09:59:24;22.10;86.90
28244;DHT22;15510;52.512;13.300;2022-07-06T10:01:52;22.10;86.80
28244;DHT22;15510;52.512;13.300;2022-07-06T10:04:17;22.20;87.20
28244;DHT22;15510;52.512;13.300;2022-07-06T10:06:46;22.30;87.10
28244;DHT22;15510;52.512;13.300;2022-07-06T10:09:13;22.50;87.30
28244;DHT22;15510;52.512;13.300;2022-07-06T10:11:41;22.50;87.20
28244;DHT22;15510;52.512;13.300;2022-07-06T10:14:08;22.50;87.30
28244;DHT22;15510;52.512;13.300;2022-07-06T10:16:36;22.50;87.80
28244;DHT22;15510;52.512;13.300;2022-07-06T10:19:06;22.50;88.00
28244;DHT22;15510;52.512;13.300;2022-07-06T10:21:33;22.30;89.40
28244;DHT22;15510;52.512;13.300;2022-07-06T10:24:01;21.90;88.90
28244;DHT22;15510;52.512;13.300;2022-07-06T10:26:27;21.70;90.30
28244;DHT22;15510;52.512;13.300;2022-07-06T10:28:53;21.90;90.30
28244;DHT22;15510;52.512;13.300;2022-07-06T10:31:21;22.00;90.80
28244;DHT22;15510;52.512;13.300;2022-07-06T10:33:47;22.20;90.50
28244;DHT22;15510;52.512;13.300;2022-07-06T10:36:13;22.30;90.70
28244;DHT22;15510;52.512;13.300;2022-07-06T10:38:40;22.40;90.30
28244;DHT22;15510;52.512;13.300;2022-07-06T10:41:07;22.70;89.70
28244;DHT22;15510;52.512;13.300;2022-07-06T10:43:42;23.00;87.80
28244;DHT22;15510;52.512;13.300;2022-07-06T10:46:16;23.30;86.90
28244;DHT22;15510;52.512;13.300;2022-07-06T10:48:44;23.50;84.50
28244;DHT22;15510;52.512;13.300;2022-07-06T10:51:29;23.60;81.70
28244;DHT22;15510;52.512;13.300;2022-07-06T10:54:00;23.60;80.60
28244;DHT22;15510;52.512;13.300;2022-07-06T10:56:39;23.60;78.80
28244;DHT22;15510;52.512;13.300;2022-07-06T11:04:40;24.20;76.60
28244;DHT22;15510;52.512;13.300;2022-07-06T11:07:19;24.60;76.30
28244;DHT22;15510;52.512;13.300;2022-07-06T11:09:56;24.70;76.40
28244;DHT22;15510;52.512;13.300;2022-07-06T11:12:22;24.30;77.60
28244;DHT22;15510;52.512;13.300;2022-07-06T11:14:50;24.00;78.10
28244;DHT22;15510;52.512;13.300;2022-07-06T11:17:17;23.60;79.80
28244;DHT22;15510;52.512;13.300;2022-07-06T11:19:57;23.20;81.40
28244;DHT22;15510;52.512;13.300;2022-07-06T11:22:23;22.90;82.30
28244;DHT22;15510;52.512;13.300;2022-07-06T11:24:52;22.90;81.90
28244;DHT22;15510;52.512;13.300;2022-07-06T11:27:27;23.10;81.40
28244;DHT22;15510;52.512;13.300;2022-07-06T11:29:56;23.30;79.80
28244;DHT22;15510;52.512;13.300;2022-07-06T11:32:26;23.70;79.30
28244;DHT22;15510;52.512;13.300;2022-07-06T11:34:52;23.80;78.50
28244;DHT22;15510;52.512;13.300;2022-07-06T11:37:19;23.60;79.20
28244;DHT22;15510;52.512;13.300;2022-07-06T11:39:47;23.50;79.00
28244;DHT22;15510;52.512;13.300;2022-07-06T11:42:15;23.90;78.30
28244;DHT22;15510;52.512;13.300;2022-07-06T11:44:42;24.50;75.70
28244;DHT22;15510;52.512;13.300;2022-07-06T11:47:09;24.90;74.60
28244;DHT22;15510;52.512;13.300;2022-07-06T11:49:37;25.10;72.80
28244;DHT22;15510;52.512;13.300;2022-07-06T11:52:10;25.40;71.70
28244;DHT22;15510;52.512;13.300;2022-07-06T11:54:37;25.70;70.50
28244;DHT22;15510;52.512;13.300;2022-07-06T11:57:03;25.80;69.50
28244;DHT22;15510;52.512;13.300;2022-07-06T11:59:33;25.50;70.30
28244;DHT22;15510;52.512;13.300;2022-07-06T12:02:07;24.70;71.80
28244;DHT22;15510;52.512;13.300;2022-07-06T12:04:35;24.40;73.10
28244;DHT22;15510;52.512;13.300;2022-07-06T12:07:05;24.00;74.60
28244;DHT22;15510;52.512;13.300;2022-07-06T12:09:38;23.70;75.60
28244;DHT22;15510;52.512;13.300;2022-07-06T12:12:04;23.30;77.40
28244;DHT22;15510;52.512;13.300;2022-07-06T12:14:33;23.10;77.40
28244;DHT22;15510;52.512;13.300;2022-07-06T12:17:10;23.20;78.50
28244;DHT22;15510;52.512;13.300;2022-07-06T12:19:37;23.00;79.70
28244;DHT22;15510;52.512;13.300;2022-07-06T12:22:04;23.20;79.80
28244;DHT22;15510;52.512;13.300;2022-07-06T12:24:31;23.80;79.00
28244;DHT22;15510;52.512;13.300;2022-07-06T12:26:58;24.40;77.20
28244;DHT22;15510;52.512;13.300;2022-07-06T12:29:25;25.20;74.20
28244;DHT22;15510;52.512;13.300;2022-07-06T12:31:54;25.60;72.10
28244;DHT22;15510;52.512;13.300;2022-07-06T12:34:28;26.00;71.80
28244;DHT22;15510;52.512;13.300;2022-07-06T12:36:57;26.60;69.50
28244;DHT22;15510;52.512;13.300;2022-07-06T12:39:27;27.30;67.70
28244;DHT22;15510;52.512;13.300;2022-07-06T12:42:03;27.60;66.10
28244;DHT22;15510;52.512;13.300;2022-07-06T12:44:30;27.60;65.80
28244;DHT22;15510;52.512;13.300;2022-07-06T12:47:03;27.50;65.30
28244;DHT22;15510;52.512;13.300;2022-07-06T12:49:30;26.70;66.80
28244;DHT22;15510;52.512;13.300;2022-07-06T12:52:07;26.20;68.10
28244;DHT22;15510;52.512;13.300;2022-07-06T12:54:36;25.90;69.10
28244;DHT22;15510;52.512;13.300;2022-07-06T12:59:35;25.70;68.30
28244;DHT22;15510;52.512;13.300;2022-07-06T13:02:01;25.30;67.40
28244;DHT22;15510;52.512;13.300;2022-07-06T13:04:29;25.10;68.60
28244;DHT22;15510;52.512;13.300;2022-07-06T13:06:55;25.10;68.10
28244;DHT22;15510;52.512;13.300;2022-07-06T13:09:21;25.10;67.30
28244;DHT22;15510;52.512;13.300;2022-07-06T13:11:48;25.50;67.10
28244;DHT22;15510;52.512;13.300;2022-07-06T13:14:15;26.00;65.60
28244;DHT22;15510;52.512;13.300;2022-07-06T13:16:42;26.60;64.30
28244;DHT22;15510;52.512;13.300;2022-07-06T13:19:08;27.00;63.60
28244;DHT22;15510;52.512;13.300;2022-07-06T13:21:34;27.00;62.80
28244;DHT22;15510;52.512;13.300;2022-07-06T13:24:00;27.60;63.00
28244;DHT22;15510;52.512;13.300;2022-07-06T13:26:26;28.20;60.80
28244;DHT22;15510;52.512;13.300;2022-07-06T13:28:52;27.70;60.50
28244;DHT22;15510;52.512;13.300;2022-07-06T13:31:17;27.50;61.40
28244;DHT22;15510;52.512;13.300;2022-07-06T13:33:43;28.20;60.00
28244;DHT22;15510;52.512;13.300;2022-07-06T13:36:09;28.40;59.30
28244;DHT22;15510;52.512;13.300;2022-07-06T13:38:35;28.00;59.00
28244;DHT22;15510;52.512;13.300;2022-07-06T13:41:01;27.60;59.60
28244;DHT22;15510;52.512;13.300;2022-07-06T13:43:26;27.30;60.00
28244;DHT22;15510;52.512;13.300;2022-07-06T13:46:05;27.00;61.20
28244;DHT22;15510;52.512;13.300;2022-07-06T13:48:32;26.80;61.80
28244;DHT22;15510;52.512;13.300;2022-07-06T13:50:58;26.40;62.40
28244;DHT22;15510;52.512;13.300;2022-07-06T13:53:23;26.20;62.70
28244;DHT22;15510;52.512;13.300;2022-07-06T13:55:49;26.00;62.90
28244;DHT22;15510;52.512;13.300;2022-07-06T13:58:15;25.90;62.20
28244;DHT22;15510;52.512;13.300;2022-07-06T14:00:41;25.50;60.90
28244;DHT22;15510;52.512;13.300;2022-07-06T14:03:07;25.30;60.90
28244;DHT22;15510;52.512;13.300;2022-07-06T14:05:33;25.10;61.60
28244;DHT22;15510;52.512;13.300;2022-07-06T14:08:00;24.80;62.60
28244;DHT22;15510;52.512;13.300;2022-07-06T14:10:26;24.70;63.90
28244;DHT22;15510;52.512;13.300;2022-07-06T14:12:52;24.40;64.00
28244;DHT22;15510;52.512;13.300;2022-07-06T14:15:18;24.40;64.00
28244;DHT22;15510;52.512;13.300;2022-07-06T14:17:44;24.60;64.00
28244;DHT22;15510;52.512;13.300;2022-07-06T14:20:10;24.80;63.50
28244;DHT22;15510;52.512;13.300;2022-07-06T14:22:36;24.90;63.10
28244;DHT22;15510;52.512;13.300;2022-07-06T14:25:03;25.20;62.80
28244;DHT22;15510;52.512;13.300;2022-07-06T14:27:30;25.50;62.60
28244;DHT22;15510;52.512;13.300;2022-07-06T14:29:56;25.50;62.30
28244;DHT22;15510;52.512;13.300;2022-07-06T14:32:22;25.00;63.80
28244;DHT22;15510;52.512;13.300;2022-07-06T14:34:48;24.60;64.60
28244;DHT22;15510;52.512;13.300;2022-07-06T14:37:14;24.20;65.60
28244;DHT22;15510;52.512;13.300;2022-07-06T14:39:40;23.90;66.30
28244;DHT22;15510;52.512;13.300;2022-07-06T14:42:06;23.50;67.80
28244;DHT22;15510;52.512;13.300;2022-07-06T14:44:31;23.20;69.00
28244;DHT22;15510;52.512;13.300;2022-07-06T14:46:57;23.00;69.90
28244;DHT22;15510;52.512;13.300;2022-07-06T14:49:23;22.70;71.00
28244;DHT22;15510;52.512;13.300;2022-07-06T14:51:49;22.50;72.00
28244;DHT22;15510;52.512;13.300;2022-07-06T14:54:15;22.10;73.60
28244;DHT22;15510;52.512;13.300;2022-07-06T14:56:40;21.90;74.70
28244;DHT22;15510;52.512;13.300;2022-07-06T14:59:07;21.70;76.10
28244;DHT22;15510;52.512;13.300;2022-07-06T15:01:32;21.70;76.80
28244;DHT22;15510;52.512;13.300;2022-07-06T15:03:58;21.70;77.80
28244;DHT22;15510;52.512;13.300;2022-07-06T15:06:23;21.60;78.20
28244;DHT22;15510;52.512;13.300;2022-07-06T15:08:49;21.50;78.80
28244;DHT22;15510;52.512;13.300;2022-07-06T15:11:15;21.40;79.20
28244;DHT22;15510;52.512;13.300;2022-07-06T15:13:40;21.40;80.70
28244;DHT22;15510;52.512;13.300;2022-07-06T15:16:06;21.30;81.80
28244;DHT22;15510;52.512;13.300;2022-07-06T15:18:32;21.20;81.40
28244;DHT22;15510;52.512;13.300;2022-07-06T15:20:57;21.30;81.60
28244;DHT22;15510;52.512;13.300;2022-07-06T15:23:23;21.40;81.10